Time;durP1;ratioP1;P1;durP2;ratioP2;P2;SDS_P1;SDS_P2;PMS_P1;PMS_P2;Temp;Humidity;BMP_temperature;BMP_pressure;BME280_temperature;BME280_humidity;BME280_pressure;Samples;Min_cycle;Max_cycle;Signal;HPM_P1;HPM_P2
2022/04/10 00:00:14;;;;;;;6.77;2.90;;;;;;;11.55;60.53;99377.39;123371;1098;104377;-76
2022/04/10 00:03:05;;;;;;;5.17;2.70;;;;;;;11.49;61.09;99386.05;123321;1097;104345;-76
2022/04/10 00:05:37;;;;;;;3.33;2.60;;;;;;;11.44;60.09;99372.85;123377;1099;104341;-76
2022/04/10 00:08:09;;;;;;;3.93;2.60;;;;;;;11.39;60.26;99368.38;123377;1098;104242;-76
2022/04/10 00:10:42;;;;;;;3.40;2.30;;;;;;;11.40;60.31;99359.66;123364;1099;104280;-75
2022/04/10 00:13:13;;;;;;;3.07;2.60;;;;;;;11.34;60.62;99360.44;123331;1099;104304;-76
2022/04/10 00:15:45;;;;;;;4.10;2.33;;;;;;;11.30;60.80;99374.41;123298;1099;104406;-76
2022/04/10 00:18:19;;;;;;;4.37;2.73;;;;;;;11.28;60.47;99377.02;123384;1099;104641;-76
2022/04/10 00:20:50;;;;;;;3.23;2.53;;;;;;;11.27;60.79;99387.49;123299;1099;104338;-76
2022/04/10 00:23:21;;;;;;;4.33;2.60;;;;;;;11.24;60.18;99377.81;123357;1099;104260;-77
2022/04/10 00:25:53;;;;;;;4.57;2.70;;;;;;;11.23;60.74;99385.66;123320;1097;104301;-76
2022/04/10 00:28:25;;;;;;;4.40;2.93;;;;;;;11.15;60.99;99377.67;123379;1099;104396;-77
2022/04/10 00:30:57;;;;;;;3.70;2.17;;;;;;;11.11;61.08;99384.63;123336;1096;105601;-76
2022/04/10 00:33:29;;;;;;;4.80;2.40;;;;;;;11.07;60.24;99395.93;123356;1096;104248;-76
2022/04/10 00:36:01;;;;;;;3.23;2.30;;;;;;;11.05;61.16;99395.03;123300;1097;104335;-75
2022/04/10 00:38:34;;;;;;;3.65;2.70;;;;;;;10.98;60.66;99393.16;123319;1098;104405;-77
2022/04/10 00:41:06;;;;;;;3.40;2.10;;;;;;;10.93;61.34;99386.95;123286;1099;104235;-76
2022/04/10 00:43:39;;;;;;;4.37;2.50;;;;;;;10.94;61.29;99396.61;123378;1099;104259;-76
2022/04/10 00:46:11;;;;;;;2.77;2.15;;;;;;;10.85;61.24;99394.70;123401;1099;104316;-76
2022/04/10 00:48:43;;;;;;;2.53;2.23;;;;;;;10.85;60.92;99420.94;123431;1099;104361;-75
2022/04/10 00:54:04;;;;;;;2.57;2.23;;;;;;;10.76;61.39;99419.03;123328;1099;104479;-77
2022/04/10 00:56:35;;;;;;;3.25;2.30;;;;;;;10.65;61.24;99423.21;123333;1099;104398;-77
2022/04/10 00:59:09;;;;;;;3.40;2.20;;;;;;;10.55;61.70;99416.92;123332;1099;104780;-76
2022/04/10 01:01:45;;;;;;;3.03;2.20;;;;;;;10.46;61.79;99413.25;123341;1099;104274;-77
2022/04/10 01:04:21;;;;;;;2.73;2.07;;;;;;;10.38;61.94;99423.59;123315;1099;104677;-76
2022/04/10 01:06:56;;;;;;;3.70;2.30;;;;;;;10.31;62.91;99435.65;123300;1097;104236;-76
2022/04/10 01:09:28;;;;;;;3.10;2.20;;;;;;;10.26;62.48;99437.30;123379;1098;104338;-76
2022/04/10 01:12:02;;;;;;;4.50;2.20;;;;;;;10.24;62.39;99428.54;123322;1099;104195;-75
2022/04/10 01:14:35;;;;;;;2.63;2.10;;;;;;;10.17;62.48;99439.74;123302;1098;104333;-76
2022/04/10 01:17:10;;;;;;;3.73;2.00;;;;;;;10.10;62.65;99433.50;123326;1099;104675;-76
2022/04/10 01:19:43;;;;;;;2.83;1.90;;;;;;;10.03;62.88;99445.57;123349;1098;104489;-76
2022/04/10 01:22:36;;;;;;;3.93;1.90;;;;;;;10.05;62.40;99448.22;123371;1099;104217;-77
2022/04/10 01:25:13;;;;;;;3.20;2.20;;;;;;;9.98;63.31;99448.97;123339;1099;104262;-76
2022/04/10 01:27:47;;;;;;;2.47;1.80;;;;;;;9.95;62.99;99464.62;123390;1099;104714;-75
2022/04/10 01:30:20;;;;;;;2.53;2.10;;;;;;;9.94;62.58;99466.38;123402;1099;104351;-75
2022/04/10 01:32:52;;;;;;;2.40;1.97;;;;;;;9.94;62.75;99461.13;123344;1096;104353;-77
2022/04/10 01:35:26;;;;;;;2.10;1.87;;;;;;;9.95;62.69;99456.77;123387;1098;104349;-76
2022/04/10 01:38:00;;;;;;;2.03;1.77;;;;;;;9.95;63.31;99473.36;123317;1099;104338;-76
2022/04/10 01:40:38;;;;;;;2.47;2.00;;;;;;;9.91;63.03;99455.83;123348;1099;104226;-76
2022/04/10 01:43:10;;;;;;;2.55;2.10;;;;;;;9.85;62.99;99442.59;123367;1098;104265;-76
2022/04/10 01:45:42;;;;;;;2.70;2.07;;;;;;;9.79;63.08;99461.66;123351;1099;104396;-76
2022/04/10 01:48:15;;;;;;;1.93;1.70;;;;;;;9.77;63.48;99459.85;123376;1099;104264;-75
2022/04/10 01:50:46;;;;;;;3.33;2.03;;;;;;;9.68;63.35;99461.42;123326;1099;105318;-77
2022/04/10 01:53:19;;;;;;;2.75;2.20;;;;;;;9.62;64.80;99448.19;123348;1099;104276;-76
2022/04/10 01:55:51;;;;;;;4.40;2.30;;;;;;;9.59;64.17;99461.22;123355;1097;104348;-76
2022/04/10 01:58:23;;;;;;;3.17;2.00;;;;;;;9.54;64.14;99452.37;123323;1099;104750;-75
2022/04/10 02:00:54;;;;;;;3.00;2.13;;;;;;;9.50;63.80;99467.11;123368;1099;104319;-77
2022/04/10 02:03:26;;;;;;;2.60;2.20;;;;;;;9.45;64.18;99473.11;123306;1098;104297;-75
2022/04/10 02:06:00;;;;;;;5.20;2.37;;;;;;;9.43;64.26;99472.20;123354;1099;104163;-75
2022/04/10 02:08:35;;;;;;;4.27;2.30;;;;;;;9.39;64.47;99465.98;123367;1099;104565;-75
2022/04/10 02:11:13;;;;;;;2.60;2.40;;;;;;;9.38;64.81;99474.70;123320;1099;104341;-76
2022/04/10 02:13:45;;;;;;;3.35;2.25;;;;;;;9.33;65.41;99482.45;123355;1099;104350;-75
2022/04/10 02:16:18;;;;;;;3.13;2.03;;;;;;;9.30;65.20;99484.99;123464;1099;104347;-75
2022/04/10 02:18:51;;;;;;;3.35;2.00;;;;;;;9.31;65.00;99478.02;123436;1099;104236;-76
2022/04/10 02:21:22;;;;;;;3.50;2.27;;;;;;;9.26;64.31;99485.75;123439;1099;104365;-76
2022/04/10 02:23:55;;;;;;;3.77;2.10;;;;;;;9.25;65.38;99498.80;123337;1098;104354;-76
2022/04/10 02:26:26;;;;;;;3.30;2.30;;;;;;;9.20;66.00;99506.53;123424;1099;104434;-75
2022/04/10 02:28:59;;;;;;;3.77;2.30;;;;;;;9.12;66.70;99480.17;123424;1099;104322;-76
2022/04/10 02:31:30;;;;;;;3.37;2.23;;;;;;;9.07;66.27;99504.44;123375;1099;104575;-76
2022/04/10 02:34:01;;;;;;;3.97;2.30;;;;;;;9.04;65.18;99505.27;123330;1097;104368;-75
2022/04/10 02:36:33;;;;;;;3.03;2.30;;;;;;;9.08;65.29;99511.45;123296;1097;104647;-76
2022/04/10 02:39:04;;;;;;;3.13;2.43;;;;;;;9.13;64.88;99520.30;123396;1099;104219;-76
2022/04/10 02:41:35;;;;;;;4.03;2.50;;;;;;;9.15;65.28;99518.63;123332;1096;104268;-76
2022/04/10 02:44:08;;;;;;;3.47;2.40;;;;;;;9.15;66.33;99508.16;123300;1098;104296;-77
2022/04/10 02:46:39;;;;;;;7.13;2.40;;;;;;;9.07;66.14;99514.91;123376;1099;104338;-76
2022/04/10 02:49:10;;;;;;;4.47;2.47;;;;;;;8.98;65.13;99526.04;123323;1099;104409;-76
2022/04/10 02:51:42;;;;;;;2.47;2.00;;;;;;;8.96;65.73;99531.23;123320;1099;104364;-76
2022/04/10 02:54:14;;;;;;;4.03;2.53;;;;;;;8.98;65.89;99524.30;123307;1099;104273;-76
2022/04/10 02:56:45;;;;;;;4.03;2.80;;;;;;;8.95;66.25;99525.96;123490;1097;104376;-75
2022/04/10 02:59:16;;;;;;;3.43;2.50;;;;;;;8.88;67.23;99530.16;123472;1099;104459;-76
2022/04/10 03:01:50;;;;;;;6.00;2.50;;;;;;;8.80;66.27;99519.48;123472;1099;104472;-76
2022/04/10 03:04:21;;;;;;;4.83;2.40;;;;;;;8.75;66.88;99528.03;124703;1099;104300;-75
2022/04/10 03:06:52;;;;;;;3.97;2.60;;;;;;;8.72;67.36;99522.72;123625;1099;104430;-75
2022/04/10 03:09:24;;;;;;;3.37;2.60;;;;;;;8.66;68.04;99528.66;123630;1098;104300;-76
2022/04/10 03:11:56;;;;;;;4.73;2.60;;;;;;;8.64;66.94;99531.23;123505;1098;104249;-76
2022/04/10 03:14:28;;;;;;;4.33;2.67;;;;;;;8.62;67.29;99517.23;123537;1099;104396;-75
2022/04/10 03:17:00;;;;;;;3.95;2.35;;;;;;;8.61;68.32;99522.42;123480;1099;104252;-75
2022/04/10 03:19:31;;;;;;;3.20;2.63;;;;;;;8.59;67.62;99551.14;123297;1099;104467;-76
2022/04/10 03:22:03;;;;;;;3.87;2.70;;;;;;;8.61;67.34;99562.52;123424;1099;104249;-76
2022/04/10 03:24:35;;;;;;;4.37;2.97;;;;;;;8.59;66.73;99566.83;123306;1099;104257;-76
2022/04/10 03:27:07;;;;;;;8.30;3.10;;;;;;;8.57;68.96;99539.77;123271;1099;104357;-75
2022/04/10 03:29:38;;;;;;;10.50;3.20;;;;;;;8.51;67.97;99526.52;123357;1098;104245;-76
2022/04/10 03:32:11;;;;;;;4.70;2.70;;;;;;;8.43;69.29;99556.73;123367;1099;104271;-75
2022/04/10 03:34:44;;;;;;;5.87;2.62;;;;;;;8.25;69.40;99549.25;123387;1098;104293;-75
2022/04/10 03:37:16;;;;;;;6.30;3.00;;;;;;;8.14;69.11;99558.50;123341;1099;104499;-76
2022/04/10 03:39:47;;;;;;;7.60;3.43;;;;;;;8.01;71.47;99558.13;123292;1099;104335;-77
2022/04/10 03:42:20;;;;;;;8.03;3.10;;;;;;;7.98;68.74;99544.06;123370;1097;104217;-76
2022/04/10 03:44:51;;;;;;;6.30;3.10;;;;;;;7.95;68.79;99559.64;123284;1099;104763;-75
2022/04/10 03:47:23;;;;;;;5.23;3.07;;;;;;;7.85;70.37;99561.99;123329;1098;104261;-77
2022/04/10 03:49:55;;;;;;;5.00;3.00;;;;;;;7.82;69.76;99566.20;123327;1099;104273;-75
2022/04/10 03:52:26;;;;;;;5.55;3.20;;;;;;;7.78;70.56;99560.02;123278;1099;105098;-77
2022/04/10 03:54:57;;;;;;;6.63;3.30;;;;;;;7.80;71.44;99584.44;123314;1099;104718;-75
2022/04/10 03:57:28;;;;;;;6.33;3.30;;;;;;;7.76;70.88;99598.26;123337;1096;104338;-75
2022/04/10 04:00:00;;;;;;;7.07;3.43;;;;;;;7.72;70.82;99591.16;123311;1099;104280;-76
2022/04/10 04:02:32;;;;;;;5.90;3.33;;;;;;;7.70;71.04;99593.71;123504;1099;104805;-76
2022/04/10 04:05:05;;;;;;;7.63;3.20;;;;;;;7.70;71.15;99600.67;123418;1099;104460;-76
2022/04/10 04:07:36;;;;;;;7.15;3.60;;;;;;;7.70;70.35;99600.67;123457;1099;104264;-76
2022/04/10 04:10:10;;;;;;;6.23;3.40;;;;;;;7.75;70.70;99601.70;123456;1099;104259;-76
2022/04/10 04:12:41;;;;;;;7.05;3.47;;;;;;;7.73;71.33;99604.26;123536;1099;104251;-75
2022/04/10 04:15:14;;;;;;;7.30;3.60;;;;;;;7.75;71.70;99604.31;123472;1099;104342;-76
2022/04/10 04:17:46;;;;;;;8.40;3.70;;;;;;;7.77;70.66;99609.58;123411;1099;104399;-77
2022/04/10 04:20:18;;;;;;;8.70;3.57;;;;;;;7.78;70.54;99613.98;123433;1099;104392;-76
2022/04/10 04:22:49;;;;;;;10.73;3.90;;;;;;;7.82;72.13;99618.45;123584;1099;104297;-75
2022/04/10 04:25:21;;;;;;;7.70;4.10;;;;;;;7.81;70.76;99622.79;123592;1097;104249;-75
2022/04/10 04:27:52;;;;;;;8.00;3.90;;;;;;;7.82;71.05;99629.80;123624;1099;104291;-75
2022/04/10 04:30:24;;;;;;;7.73;3.40;;;;;;;7.81;71.58;99628.02;123532;1099;104402;-75
2022/04/10 04:32:57;;;;;;;6.40;3.63;;;;;;;7.85;71.85;99650.80;123547;1098;104369;-75
2022/04/10 04:35:29;;;;;;;6.73;3.47;;;;;;;7.82;71.85;99648.09;123511;1099;104194;-76
2022/04/10 04:38:01;;;;;;;5.43;3.40;;;;;;;7.81;72.60;99648.03;123352;1098;104427;-77
2022/04/10 04:40:32;;;;;;;5.03;3.30;;;;;;;7.75;71.60;99643.48;123525;1097;104248;-75
2022/04/10 04:43:04;;;;;;;6.30;3.70;;;;;;;7.77;71.37;99640.92;123567;1098;104297;-75
2022/04/10 04:45:38;;;;;;;5.67;3.20;;;;;;;7.79;72.20;99639.23;123576;1099;104322;-75
2022/04/10 04:48:17;;;;;;;4.13;3.20;;;;;;;7.75;72.95;99638.26;123591;1097;104281;-75
2022/04/10 04:50:49;;;;;;;5.40;3.67;;;;;;;7.73;73.05;99626.89;123587;1099;104246;-75
2022/04/10 04:53:25;;;;;;;6.60;3.17;;;;;;;7.69;73.99;99618.04;123461;1099;104291;-75
2022/04/10 04:55:56;;;;;;;5.90;3.23;;;;;;;7.68;73.85;99624.12;123459;1099;104216;-75
2022/04/10 04:58:29;;;;;;;9.35;4.00;;;;;;;7.68;72.43;99631.05;123777;1098;104239;-75
2022/04/10 05:01:01;;;;;;;5.03;3.20;;;;;;;7.72;72.78;99640.77;123567;1098;104265;-75
2022/04/10 05:03:34;;;;;;;6.47;3.70;;;;;;;7.77;71.87;99657.47;123499;1098;104386;-76
2022/04/10 05:06:05;;;;;;;6.23;3.40;;;;;;;7.73;72.22;99640.82;123466;1099;104501;-75
2022/04/10 05:08:39;;;;;;;7.63;3.60;;;;;;;7.66;73.30;99649.27;123461;1098;104447;-78
2022/04/10 05:11:11;;;;;;;6.30;3.47;;;;;;;7.62;72.82;99656.95;123213;1099;104345;-75
2022/04/10 05:13:44;;;;;;;6.50;3.10;;;;;;;7.57;74.39;99654.18;123445;1098;104313;-75
2022/04/10 05:16:16;;;;;;;6.60;4.10;;;;;;;7.51;73.21;99659.19;123470;1099;104491;-75
2022/04/10 05:18:51;;;;;;;9.57;4.33;;;;;;;7.47;73.09;99673.87;123450;1098;104523;-75
2022/04/10 05:21:24;;;;;;;6.87;3.80;;;;;;;7.44;73.15;99676.38;123412;1099;104350;-75
2022/04/10 05:23:56;;;;;;;6.73;3.70;;;;;;;7.35;74.06;99648.25;123329;1099;104364;-76
2022/04/10 05:26:29;;;;;;;7.27;4.00;;;;;;;7.30;73.60;99664.56;123320;1098;104415;-76
2022/04/10 05:29:02;;;;;;;8.67;3.80;;;;;;;7.32;73.62;99657.67;123353;1099;104444;-76
2022/04/10 05:31:33;;;;;;;6.37;4.20;;;;;;;7.28;73.99;99661.91;123371;1099;104844;-77
2022/04/10 05:34:05;;;;;;;9.37;4.00;;;;;;;7.22;74.53;99658.20;123334;1099;104641;-77
2022/04/10 05:36:38;;;;;;;8.90;4.30;;;;;;;7.15;74.77;99638.80;123331;1099;104357;-77
2022/04/10 05:39:10;;;;;;;6.17;3.87;;;;;;;7.11;76.26;99643.03;123320;1099;104293;-77
2022/04/10 05:41:41;;;;;;;10.80;4.60;;;;;;;7.07;75.05;99650.70;123322;1099;104441;-76
2022/04/10 05:44:17;;;;;;;8.17;4.60;;;;;;;7.09;75.35;99665.58;123317;1099;104680;-76
2022/04/10 05:46:48;;;;;;;9.10;5.00;;;;;;;7.08;74.63;99697.70;123318;1099;104555;-75
2022/04/10 05:49:23;;;;;;;9.63;4.63;;;;;;;7.03;74.15;99691.45;123308;1099;104226;-75
2022/04/10 05:51:54;;;;;;;6.93;4.40;;;;;;;7.01;75.32;99673.13;123305;1099;104322;-77
2022/04/10 05:54:25;;;;;;;9.77;5.13;;;;;;;7.00;75.29;99673.07;123339;1097;104265;-76
2022/04/10 05:56:58;;;;;;;9.43;4.70;;;;;;;6.97;75.63;99663.40;123330;1099;104351;-77
2022/04/10 05:59:29;;;;;;;9.15;4.80;;;;;;;6.95;74.55;99683.34;123275;1099;104329;-76
2022/04/10 06:02:01;;;;;;;7.63;4.90;;;;;;;6.96;74.45;99676.39;123381;1099;104791;-77
2022/04/10 06:04:33;;;;;;;7.13;4.20;;;;;;;6.96;76.45;99661.61;123306;1099;104453;-76
2022/04/10 06:07:05;;;;;;;8.20;4.70;;;;;;;6.99;74.95;99655.63;123353;1098;104309;-77
2022/04/10 06:09:39;;;;;;;8.85;4.40;;;;;;;7.00;76.86;99660.03;123338;1099;104360;-76
2022/04/10 06:12:12;;;;;;;11.87;5.23;;;;;;;7.05;75.20;99662.81;123317;1099;104347;-77
2022/04/10 06:14:47;;;;;;;9.47;4.73;;;;;;;7.08;76.04;99658.58;123371;1099;104286;-76
2022/04/10 06:17:19;;;;;;;8.50;4.67;;;;;;;7.05;75.57;99655.86;123393;1099;104361;-77
2022/04/10 06:19:52;;;;;;;9.57;4.27;;;;;;;7.02;75.88;99643.58;123421;1098;104653;-77
2022/04/10 06:22:24;;;;;;;9.87;4.93;;;;;;;7.01;76.26;99656.56;123469;1097;104401;-76
2022/04/10 06:24:56;;;;;;;9.00;4.73;;;;;;;6.99;77.21;99637.38;123345;1098;104380;-77
2022/04/10 06:27:29;;;;;;;8.30;4.80;;;;;;;7.02;77.41;99630.53;123465;1099;104219;-77
2022/04/10 06:30:00;;;;;;;10.03;4.67;;;;;;;7.00;77.19;99649.59;123531;1097;104262;-77
2022/04/10 06:32:32;;;;;;;12.30;5.20;;;;;;;6.99;75.91;99653.91;123358;1099;104782;-76
2022/04/10 06:35:05;;;;;;;10.70;5.00;;;;;;;7.05;75.84;99662.81;123364;1099;104361;-77
2022/04/10 06:37:38;;;;;;;11.50;4.87;;;;;;;7.12;76.00;99681.34;123283;1099;104364;-77
2022/04/10 06:40:11;;;;;;;9.85;5.05;;;;;;;7.13;75.59;99674.40;123392;1098;104627;-77
2022/04/10 06:42:43;;;;;;;10.77;5.47;;;;;;;7.14;76.05;99674.45;123347;1099;104313;-77
2022/04/10 06:45:26;;;;;;;9.60;5.17;;;;;;;7.19;76.62;99687.67;123396;1097;104309;-76
2022/04/10 06:47:58;;;;;;;;;;;;;;;7.19;77.68;99680.72;123417;1098;104264;-77
2022/04/10 06:50:38;;;;;;;10.57;5.40;;;;;;;7.24;75.87;99670.45;123311;1099;104382;-76
2022/04/10 06:53:14;;;;;;;10.77;5.90;;;;;;;7.27;75.56;99665.34;123408;1099;104754;-76
2022/04/10 06:55:45;;;;;;;10.07;5.73;;;;;;;7.29;76.68;99655.86;123347;1099;104363;-77
2022/04/10 06:58:22;;;;;;;12.10;5.30;;;;;;;7.33;77.51;99657.72;123442;1099;104524;-77
2022/04/10 07:00:54;;;;;;;12.63;6.07;;;;;;;7.33;77.21;99655.11;123078;1099;104380;-75
2022/04/10 07:03:25;;;;;;;8.33;5.13;;;;;;;7.37;77.50;99640.47;123097;1099;104424;-77
2022/04/10 07:05:56;;;;;;;12.73;6.00;;;;;;;7.43;76.55;99624.11;123110;1102;104457;-77
2022/04/10 07:08:32;;;;;;;10.77;6.13;;;;;;;7.55;77.14;99622.80;123075;1102;104281;-77
2022/04/10 07:11:04;;;;;;;12.23;6.40;;;;;;;7.71;77.49;99637.28;123122;1102;104467;-76
2022/04/10 07:13:36;;;;;;;11.97;6.93;;;;;;;7.85;76.73;99650.80;123182;1099;104846;-77
2022/04/10 07:16:09;;;;;;;11.33;6.60;;;;;;;7.88;77.11;99656.13;123096;1102;104802;-77
2022/04/10 07:18:41;;;;;;;15.47;7.27;;;;;;;7.90;77.14;99661.40;123141;1102;104322;-77
2022/04/10 07:23:41;;;;;;;13.83;6.80;;;;;;;7.91;77.40;99650.09;123105;1099;104367;-77
2022/04/10 07:24:09;;;;;;;10.95;6.55;;;;;;;7.97;76.50;99644.19;123134;1102;104310;-77
2022/04/10 07:26:47;;;;;;;13.93;7.17;;;;;;;7.99;77.19;99645.99;122774;1102;104440;-76
2022/04/10 07:29:19;;;;;;;12.65;6.87;;;;;;;8.04;77.06;99661.81;122716;1102;105860;-76
2022/04/10 07:31:52;;;;;;;11.70;6.53;;;;;;;7.96;77.37;99678.98;123127;1102;104354;-77
2022/04/10 07:34:24;;;;;;;15.73;7.20;;;;;;;7.90;76.91;99677.95;123152;1102;104424;-75
2022/04/10 07:37:13;;;;;;;13.70;7.50;;;;;;;7.88;77.70;99677.02;123192;1099;104479;-77
2022/04/10 07:39:52;;;;;;;14.67;6.90;;;;;;;7.84;77.36;99663.81;123152;1099;104560;-77
2022/04/10 07:42:29;;;;;;;13.20;6.60;;;;;;;7.85;76.85;99656.02;123058;1099;104508;-77
2022/04/10 07:45:00;;;;;;;10.85;6.20;;;;;;;7.87;77.19;99654.34;123148;1099;104476;-77
2022/04/10 07:47:52;;;;;;;12.90;7.53;;;;;;;7.85;77.88;99676.92;123131;1099;104928;-77
2022/04/10 07:50:23;;;;;;;14.50;7.50;;;;;;;7.84;76.92;99662.07;123307;1099;104332;-77
2022/04/10 07:52:55;;;;;;;14.93;6.87;;;;;;;7.87;77.27;99667.39;123173;1099;104357;-76
2022/04/10 07:55:30;;;;;;;14.50;6.80;;;;;;;7.90;77.76;99648.34;123386;1099;104382;-76
2022/04/10 07:58:03;;;;;;;10.93;6.30;;;;;;;7.90;77.67;99649.22;123488;1099;104168;-76
2022/04/10 08:00:36;;;;;;;13.40;6.87;;;;;;;7.88;76.74;99645.67;123110;1099;104319;-76
2022/04/10 08:03:09;;;;;;;14.97;7.53;;;;;;;7.96;77.03;99652.86;123330;1099;104405;-76
2022/04/10 08:06:03;;;;;;;15.60;7.65;;;;;;;8.00;77.14;99653.00;123431;1099;104751;-77
2022/04/10 08:08:40;;;;;;;14.03;7.40;;;;;;;8.02;77.75;99650.44;123411;1099;104395;-76
2022/04/10 08:11:12;;;;;;;10.50;6.60;;;;;;;7.98;77.79;99652.08;123512;1097;104274;-76
2022/04/10 08:13:43;;;;;;;14.17;7.40;;;;;;;7.99;78.08;99647.73;123459;1099;104181;-77
2022/04/10 08:16:15;;;;;;;13.00;6.93;;;;;;;8.00;77.10;99655.62;123409;1099;104210;-77
2022/04/10 08:18:46;;;;;;;16.33;7.67;;;;;;;8.02;77.08;99659.16;123434;1099;104320;-76
2022/04/10 08:21:18;;;;;;;15.07;7.40;;;;;;;8.06;76.75;99676.72;123379;1099;104826;-77
2022/04/10 08:23:49;;;;;;;15.03;7.80;;;;;;;8.06;76.57;99687.17;123380;1098;104255;-77
2022/04/10 08:26:21;;;;;;;13.73;7.40;;;;;;;8.09;76.81;99702.95;123422;1099;104347;-77
2022/04/10 08:28:52;;;;;;;13.67;7.87;;;;;;;8.09;76.74;99707.30;123379;1099;104696;-77
2022/04/10 08:31:26;;;;;;;15.23;7.90;;;;;;;8.07;76.83;99706.34;123407;1098;104345;-76
2022/04/10 08:33:57;;;;;;;12.07;6.95;;;;;;;8.04;76.85;99703.63;123423;1097;104258;-77
2022/04/10 08:36:29;;;;;;;15.33;8.00;;;;;;;8.02;76.89;99698.34;123409;1098;104725;-77
2022/04/10 08:39:00;;;;;;;13.33;7.10;;;;;;;8.02;76.80;99700.95;123334;1099;104336;-77
2022/04/10 08:41:34;;;;;;;14.27;7.83;;;;;;;8.06;76.85;99700.23;123326;1099;104261;-77
2022/04/10 08:44:07;;;;;;;15.05;7.55;;;;;;;8.13;77.77;99706.54;123418;1099;104344;-76
2022/04/10 08:46:38;;;;;;;15.93;8.13;;;;;;;8.12;76.49;99707.40;123343;1099;104469;-76
2022/04/10 08:49:10;;;;;;;18.10;8.90;;;;;;;8.16;76.71;99706.64;123382;1099;104280;-77
2022/04/10 08:51:42;;;;;;;13.30;8.30;;;;;;;8.18;76.47;99697.15;123386;1098;104261;-76
2022/04/10 08:54:16;;;;;;;18.17;8.40;;;;;;;8.22;76.57;99698.13;123358;1097;104318;-77
2022/04/10 08:56:47;;;;;;;14.93;8.03;;;;;;;8.22;77.17;99708.58;123416;1099;104283;-77
2022/04/10 08:59:19;;;;;;;14.67;8.13;;;;;;;8.20;76.53;99705.91;123340;1099;104348;-76
2022/04/10 09:01:56;;;;;;;14.57;7.70;;;;;;;8.22;76.90;99703.34;123403;1099;105567;-78
2022/04/10 09:04:27;;;;;;;16.17;8.17;;;;;;;8.25;76.83;99709.55;123565;1099;104248;-77
2022/04/10 09:07:03;;;;;;;13.83;8.00;;;;;;;8.27;77.08;99720.97;123440;1098;104306;-77
2022/04/10 09:09:35;;;;;;;16.33;7.63;;;;;;;8.26;76.92;99711.34;123502;1099;104291;-76
2022/04/10 09:12:08;;;;;;;15.13;7.53;;;;;;;8.23;76.71;99715.59;123444;1099;104421;-77
2022/04/10 09:14:42;;;;;;;12.30;7.30;;;;;;;8.23;76.12;99720.81;124103;1099;104265;-76
2022/04/10 09:17:15;;;;;;;15.87;9.10;;;;;;;8.24;76.75;99720.88;123391;1096;104248;-78
2022/04/10 09:19:48;;;;;;;14.80;7.73;;;;;;;8.25;76.49;99730.46;123453;1099;104264;-76
2022/04/10 09:22:30;;;;;;;12.03;7.50;;;;;;;8.24;76.72;99727.80;123349;1099;104345;-76
2022/04/10 09:25:15;;;;;;;15.65;8.30;;;;;;;8.19;77.01;99734.61;123337;1099;104512;-76
2022/04/10 09:27:47;;;;;;;17.85;8.25;;;;;;;8.18;76.55;99725.89;123364;1099;104267;-76
2022/04/10 09:30:21;;;;;;;17.63;8.97;;;;;;;8.16;76.40;99719.70;123340;1098;104245;-77
2022/04/10 09:32:53;;;;;;;17.10;8.65;;;;;;;8.16;76.28;99713.60;123358;1099;104262;-77
2022/04/10 09:35:25;;;;;;;17.80;9.13;;;;;;;8.15;76.57;99712.73;123377;1099;104326;-78
2022/04/10 09:37:58;;;;;;;16.45;8.80;;;;;;;8.13;77.31;99711.77;123390;1097;104318;-76
2022/04/10 09:40:32;;;;;;;18.17;10.00;;;;;;;8.09;76.56;99709.91;123370;1098;104245;-76
2022/04/10 09:43:05;;;;;;;17.50;9.60;;;;;;;8.04;77.16;99714.08;123325;1099;104339;-76
2022/04/10 09:45:39;;;;;;;18.42;10.20;;;;;;;8.02;76.93;99715.76;123443;1099;104242;-76
2022/04/10 09:48:19;;;;;;;;;;;;;;;7.99;78.37;99713.92;123383;1099;104185;-75
2022/04/10 09:50:53;;;;;;;17.83;10.13;;;;;;;7.96;77.76;99712.94;123356;1099;104399;-76
2022/04/10 09:53:26;;;;;;;20.20;10.98;;;;;;;7.92;77.33;99709.34;123358;1099;104331;-76
2022/04/10 09:56:00;;;;;;;17.75;10.75;;;;;;;7.91;77.73;99705.83;123350;1099;104263;-76
2022/04/10 09:58:32;;;;;;;19.73;11.28;;;;;;;7.93;77.85;99703.27;123408;1099;104334;-76
2022/04/10 10:01:06;;;;;;;19.75;11.30;;;;;;;7.95;78.40;99700.70;123341;1099;104258;-78
2022/04/10 10:03:40;;;;;;;19.97;12.03;;;;;;;7.97;78.43;99697.31;123407;1098;108198;-76
2022/04/10 10:06:12;;;;;;;21.63;12.07;;;;;;;7.99;77.40;99702.59;123366;1099;104313;-76
2022/04/10 10:08:45;;;;;;;22.17;11.73;;;;;;;7.99;78.56;99706.08;123432;1097;104290;-75
2022/04/10 10:11:18;;;;;;;22.07;13.63;;;;;;;7.96;77.81;99699.88;123381;1098;104261;-77
2022/04/10 10:13:50;;;;;;;21.57;12.27;;;;;;;7.93;78.56;99705.88;123739;1099;104687;-76
2022/04/10 10:16:21;;;;;;;19.93;11.93;;;;;;;7.89;78.41;99698.80;123364;1098;104357;-76
2022/04/10 10:18:54;;;;;;;20.40;12.43;;;;;;;7.84;78.19;99714.31;123355;1099;104396;-78
2022/04/10 10:21:27;;;;;;;20.17;12.23;;;;;;;7.85;78.45;99712.58;123467;1099;104358;-76
2022/04/10 10:24:00;;;;;;;22.00;11.80;;;;;;;7.82;78.62;99712.47;123397;1099;104236;-77
2022/04/10 10:26:47;;;;;;;19.40;11.53;;;;;;;7.80;78.37;99714.16;123400;1098;104267;-76
2022/04/10 10:29:51;;;;;;;22.03;12.67;;;;;;;7.76;78.76;99707.95;123319;1099;104342;-77
2022/04/10 10:32:43;;;;;;;19.63;11.57;;;;;;;7.71;79.51;99706.88;123358;1098;104571;-76
2022/04/10 10:35:29;;;;;;;21.47;12.67;;;;;;;7.69;79.14;99717.27;123328;1099;104376;-78
2022/04/10 10:38:01;;;;;;;21.63;12.13;;;;;;;7.68;79.63;99717.22;123337;1099;104357;-77
2022/04/10 10:40:33;;;;;;;20.90;12.40;;;;;;;7.66;79.48;99708.45;123144;1099;104243;-77
2022/04/10 10:43:05;;;;;;;21.53;12.47;;;;;;;7.63;80.32;99710.95;123310;1099;104395;-76
2022/04/10 10:45:38;;;;;;;25.63;12.33;;;;;;;7.62;80.19;99704.86;123141;1099;104418;-78
2022/04/10 10:48:37;;;;;;;22.95;13.20;;;;;;;7.63;80.44;99690.07;123159;1099;104798;-77
2022/04/10 10:51:43;;;;;;;22.37;12.63;;;;;;;7.58;81.70;99691.64;123243;1099;104424;-77
2022/04/10 10:54:23;;;;;;;19.27;11.73;;;;;;;7.53;80.44;99700.19;123176;1099;104348;-76
2022/04/10 10:56:55;;;;;;;25.20;12.57;;;;;;;7.47;80.49;99693.88;123646;1099;104534;-77
2022/04/10 10:59:35;;;;;;;17.37;11.47;;;;;;;7.39;80.55;99690.99;123571;1099;104447;-77
2022/04/10 11:02:10;;;;;;;20.30;11.35;;;;;;;7.37;81.29;99684.84;123474;1099;104457;-78
2022/04/10 11:04:46;;;;;;;20.83;11.90;;;;;;;7.36;80.89;99686.55;123574;1098;104493;-77
2022/04/10 11:07:25;;;;;;;18.27;11.57;;;;;;;7.35;81.68;99705.67;123525;1098;104306;-76
2022/04/10 11:10:04;;;;;;;21.03;11.77;;;;;;;7.31;81.04;99701.16;123590;1098;104332;-77
2022/04/10 11:12:38;;;;;;;18.60;11.53;;;;;;;7.33;81.02;99706.44;123487;1099;104348;-76
2022/04/10 11:15:21;;;;;;;20.70;11.97;;;;;;;7.33;81.13;99706.44;123988;1099;113050;-77
2022/04/10 11:17:53;;;;;;;19.13;11.13;;;;;;;7.31;81.56;99697.67;123392;1099;104348;-78
2022/04/10 11:20:26;;;;;;;17.97;11.37;;;;;;;7.35;81.27;99691.70;123473;1099;104358;-77
2022/04/10 11:23:03;;;;;;;19.20;12.17;;;;;;;7.31;80.71;99697.67;123462;1099;104278;-78
2022/04/10 11:25:39;;;;;;;22.73;12.50;;;;;;;7.27;80.58;99699.27;123520;1099;104191;-77
2022/04/10 11:28:10;;;;;;;20.73;12.30;;;;;;;7.24;80.15;99699.15;123372;1099;104287;-78
2022/04/10 11:30:45;;;;;;;21.83;12.07;;;;;;;7.20;81.43;99694.67;123540;1099;104297;-77
2022/04/10 11:33:18;;;;;;;21.77;12.37;;;;;;;7.17;81.39;99687.61;123519;1099;104393;-77
2022/04/10 11:35:57;;;;;;;23.50;12.15;;;;;;;7.16;81.16;99693.65;123568;1099;107019;-77
2022/04/10 11:38:29;;;;;;;21.47;11.80;;;;;;;7.14;81.43;99697.94;123587;1098;104412;-76
2022/04/10 11:41:01;;;;;;;20.63;11.57;;;;;;;7.12;81.76;99690.88;123359;1098;104290;-77
2022/04/10 11:43:33;;;;;;;20.30;10.73;;;;;;;7.08;81.91;99692.49;123620;1099;104358;-75
2022/04/10 11:46:06;;;;;;;17.63;10.27;;;;;;;7.02;81.66;99689.66;123628;1099;118927;-77
2022/04/10 11:48:37;;;;;;;18.53;10.87;;;;;;;6.99;81.29;99690.42;123379;1099;104298;-77
2022/04/10 11:51:13;;;;;;;20.70;10.27;;;;;;;6.99;81.58;99689.54;123563;1099;104296;-77